Aérodrome :
LOGIN :

S'inscrire | Disclaimer

   EN    FR    IT 

 










Légende :    VFR   VFR Marginal   IFR   IFR Intensif   IFR Très Intensif
Visi : 
Plafond : 
>= 8 km
>= 3000ft
5 à 8 km
1000 à 3000 ft
1500m à 5 km
500 à 1000 ft
800 à 1500m
200 à 500 ft
< 800m
< 200 ft
Symboles :   Orages  Brouillard  Fortes neiges  Fortes précipitations  Vent > 20 kt
SIGMETs :   Divers  Orages  Givrage  Turbulence  Onde Orograph.  Cendres Volcan.






- Altitude de l'aérodrome : 335 ft
- Code IATA : BEG


LYBE - Belgrade Nikola Tesla

DERNIER METAR :
  • 240900Z 27006KT 220V310 9999 SCT016 12/09 Q1005 NOSIG

METARs EXPIRÉS :
  • 240830Z 28006KT 250V320 9999 SCT012 11/08 Q1005 NOSIG
  • 240800Z 30009KT 9999 SCT010 11/09 Q1005 NOSIG
  • 240730Z 28009KT 9999 BKN014 11/09 Q1005 NOSIG
  • 240700Z 28009KT 9999 FEW014 BKN019 12/09 Q1005 NOSIG
  • 240630Z 26008KT 9999 SCT010 SCT017 11/09 Q1005 NOSIG
  • 240600Z 26006KT 230V290 9999 SCT008 SCT017 11/08 Q1005 NOSIG
  • 240530Z 23007KT 9000 BKN008 10/09 Q1005 NOSIG
  • 240500Z 24007KT 200V260 7000 BKN008 10/09 Q1005 TEMPO BKN005
  • 240430Z 24008KT 6000 BKN006 10/09 Q1005 TEMPO BKN003

TAF TAF LYBE
Valide du 24 à 06h jusqu'au 25 à 06h UTC


240500Z 2406/2506 26008KT 9999 BKN006 TX16/2412Z TN05/2504Z
BECMG 2406/2408 SCT027
TEMPO 2412/2417 27015G25KT 4000 TSRA SCT030CB SCT040



MET'MAP, la Météo Aéronautique d'un coup d'oeil ! - Copyright ORBIFLY Décembre 2007 - Disclaimer

ORBIFLY MET'MAP TEAM :

Programmation & Développement : Alexandra Zaïnal
Sur une idée originale de : Baudouin d'Aumeries
Soutien technique & logistique : Manuel Goepfert
Assistance : Marc-Olivier Méhu




SOURCES & CREDITS :

   NOAA